Romansville, Pennsylvania
Current Conditions -  °F | °C
As of 8:55 AM on Thursday 23 Oct 2014 (Local Time) from KMQS Reporting Station
Light Rain Light Rain  
Wind Chill: 50°   Ceiling: 3400
Heat Index: 50°   Visibility: 9mi
Dew Point: 45°   Wind: 13mph
Humidity: 82%   Direction: 330°NNW
Pressure: 29.82"   Gusts: 21mph
Location:  39.97°N, 75.8325°W
Report Text: KMQS 231255Z AUTO 33011G18KT 9SM -RA FEW020 SCT026 BKN034 10/07 A2982 RMK AO2
Loading
Personal Weather Stations






























Interactive Weather Map
Tropical Storm Tracking
New forecast layout! Learn more

10-Day Weather Forecast

Advertisements
Track Severe Weather on mobile